sensor_id;sensor_type;location;lat;lon;timestamp;P1;durP1;ratioP1;P2;durP2;ratioP2
59314;SDS011;46521;50.160;20.802;2023-08-08T00:06:18;3.98;;;1.48;;
59314;SDS011;46521;50.160;20.802;2023-08-08T00:16:19;5.03;;;1.40;;
59314;SDS011;46521;50.160;20.802;2023-08-08T00:26:21;4.20;;;1.50;;
59314;SDS011;46521;50.160;20.802;2023-08-08T00:36:22;4.30;;;1.70;;
59314;SDS011;46521;50.160;20.802;2023-08-08T00:46:24;3.40;;;1.53;;
59314;SDS011;46521;50.160;20.802;2023-08-08T00:56:25;3.57;;;1.47;;
59314;SDS011;46521;50.160;20.802;2023-08-08T01:16:40;3.40;;;1.33;;
59314;SDS011;46521;50.160;20.802;2023-08-08T01:26:43;4.63;;;1.58;;
59314;SDS011;46521;50.160;20.802;2023-08-08T01:36:46;3.87;;;1.40;;
59314;SDS011;46521;50.160;20.802;2023-08-08T01:46:53;4.03;;;1.55;;
59314;SDS011;46521;50.160;20.802;2023-08-08T01:56:55;4.53;;;1.33;;
59314;SDS011;46521;50.160;20.802;2023-08-08T02:06:56;3.83;;;1.50;;
59314;SDS011;46521;50.160;20.802;2023-08-08T02:16:58;4.23;;;1.63;;
59314;SDS011;46521;50.160;20.802;2023-08-08T02:27:02;4.57;;;1.50;;
59314;SDS011;46521;50.160;20.802;2023-08-08T02:37:04;3.73;;;1.38;;
59314;SDS011;46521;50.160;20.802;2023-08-08T02:47:06;5.07;;;1.50;;
59314;SDS011;46521;50.160;20.802;2023-08-08T02:57:07;3.88;;;1.60;;
59314;SDS011;46521;50.160;20.802;2023-08-08T03:07:11;5.97;;;1.60;;
59314;SDS011;46521;50.160;20.802;2023-08-08T03:17:12;5.05;;;1.90;;
59314;SDS011;46521;50.160;20.802;2023-08-08T03:27:14;4.65;;;1.90;;
59314;SDS011;46521;50.160;20.802;2023-08-08T03:37:16;4.05;;;1.70;;
59314;SDS011;46521;50.160;20.802;2023-08-08T03:47:17;5.87;;;1.70;;
59314;SDS011;46521;50.160;20.802;2023-08-08T03:57:19;5.05;;;1.98;;
59314;SDS011;46521;50.160;20.802;2023-08-08T04:07:20;5.45;;;1.95;;
59314;SDS011;46521;50.160;20.802;2023-08-08T04:17:21;6.57;;;1.90;;
59314;SDS011;46521;50.160;20.802;2023-08-08T04:27:23;6.78;;;2.50;;
59314;SDS011;46521;50.160;20.802;2023-08-08T04:37:24;5.90;;;2.17;;
59314;SDS011;46521;50.160;20.802;2023-08-08T04:47:26;5.85;;;1.73;;
59314;SDS011;46521;50.160;20.802;2023-08-08T04:57:28;4.17;;;1.50;;
59314;SDS011;46521;50.160;20.802;2023-08-08T05:07:29;5.43;;;1.50;;
59314;SDS011;46521;50.160;20.802;2023-08-08T05:17:30;3.70;;;1.30;;
59314;SDS011;46521;50.160;20.802;2023-08-08T05:27:32;4.70;;;1.60;;
59314;SDS011;46521;50.160;20.802;2023-08-08T05:37:34;4.95;;;1.60;;
59314;SDS011;46521;50.160;20.802;2023-08-08T05:47:35;3.03;;;1.40;;
59314;SDS011;46521;50.160;20.802;2023-08-08T05:57:37;4.77;;;1.63;;
59314;SDS011;46521;50.160;20.802;2023-08-08T06:07:39;5.27;;;1.50;;
59314;SDS011;46521;50.160;20.802;2023-08-08T06:17:40;5.28;;;1.63;;
59314;SDS011;46521;50.160;20.802;2023-08-08T06:27:42;4.83;;;1.60;;
59314;SDS011;46521;50.160;20.802;2023-08-08T06:37:43;3.30;;;1.30;;
59314;SDS011;46521;50.160;20.802;2023-08-08T06:47:45;3.17;;;1.40;;
59314;SDS011;46521;50.160;20.802;2023-08-08T06:57:46;4.83;;;1.77;;
59314;SDS011;46521;50.160;20.802;2023-08-08T07:07:49;4.23;;;1.60;;
59314;SDS011;46521;50.160;20.802;2023-08-08T07:17:51;6.20;;;2.10;;
59314;SDS011;46521;50.160;20.802;2023-08-08T07:27:52;6.83;;;1.73;;
59314;SDS011;46521;50.160;20.802;2023-08-08T07:37:54;6.45;;;1.80;;
59314;SDS011;46521;50.160;20.802;2023-08-08T07:47:55;5.80;;;1.63;;
59314;SDS011;46521;50.160;20.802;2023-08-08T07:57:57;5.37;;;1.90;;
59314;SDS011;46521;50.160;20.802;2023-08-08T08:07:58;5.17;;;1.57;;
59314;SDS011;46521;50.160;20.802;2023-08-08T08:18:00;4.90;;;1.60;;
59314;SDS011;46521;50.160;20.802;2023-08-08T08:28:01;5.40;;;1.67;;
59314;SDS011;46521;50.160;20.802;2023-08-08T08:38:03;3.75;;;1.55;;
59314;SDS011;46521;50.160;20.802;2023-08-08T08:48:05;4.87;;;1.67;;
59314;SDS011;46521;50.160;20.802;2023-08-08T08:58:11;4.35;;;1.70;;
59314;SDS011;46521;50.160;20.802;2023-08-08T09:08:16;7.25;;;1.65;;
59314;SDS011;46521;50.160;20.802;2023-08-08T09:18:18;5.38;;;1.63;;
59314;SDS011;46521;50.160;20.802;2023-08-08T09:28:19;3.40;;;1.70;;
59314;SDS011;46521;50.160;20.802;2023-08-08T09:38:21;4.80;;;1.50;;
59314;SDS011;46521;50.160;20.802;2023-08-08T09:48:23;4.60;;;1.30;;
59314;SDS011;46521;50.160;20.802;2023-08-08T09:58:30;4.00;;;1.43;;
59314;SDS011;46521;50.160;20.802;2023-08-08T10:08:32;3.43;;;1.18;;
59314;SDS011;46521;50.160;20.802;2023-08-08T10:18:33;4.80;;;1.70;;
59314;SDS011;46521;50.160;20.802;2023-08-08T10:28:35;5.73;;;1.70;;
59314;SDS011;46521;50.160;20.802;2023-08-08T10:38:46;5.75;;;1.65;;
59314;SDS011;46521;50.160;20.802;2023-08-08T10:48:51;4.30;;;1.33;;
59314;SDS011;46521;50.160;20.802;2023-08-08T10:58:54;5.03;;;1.53;;
59314;SDS011;46521;50.160;20.802;2023-08-08T11:08:55;3.90;;;1.50;;
59314;SDS011;46521;50.160;20.802;2023-08-08T11:18:57;2.63;;;1.20;;
59314;SDS011;46521;50.160;20.802;2023-08-08T11:28:59;3.15;;;1.20;;
59314;SDS011;46521;50.160;20.802;2023-08-08T11:39:03;4.27;;;1.43;;
59314;SDS011;46521;50.160;20.802;2023-08-08T11:49:13;4.70;;;1.55;;
59314;SDS011;46521;50.160;20.802;2023-08-08T12:09:17;5.00;;;1.65;;
59314;SDS011;46521;50.160;20.802;2023-08-08T12:19:22;4.87;;;1.80;;
59314;SDS011;46521;50.160;20.802;2023-08-08T12:29:25;5.35;;;1.60;;
59314;SDS011;46521;50.160;20.802;2023-08-08T12:39:26;4.95;;;1.60;;
59314;SDS011;46521;50.160;20.802;2023-08-08T12:49:28;3.73;;;1.40;;
59314;SDS011;46521;50.160;20.802;2023-08-08T12:59:29;3.50;;;1.30;;
59314;SDS011;46521;50.160;20.802;2023-08-08T13:09:31;5.90;;;1.80;;
59314;SDS011;46521;50.160;20.802;2023-08-08T13:19:32;6.15;;;2.58;;
59314;SDS011;46521;50.160;20.802;2023-08-08T13:29:34;4.45;;;1.70;;
59314;SDS011;46521;50.160;20.802;2023-08-08T13:39:35;3.77;;;1.33;;
59314;SDS011;46521;50.160;20.802;2023-08-08T13:49:37;4.93;;;1.30;;
59314;SDS011;46521;50.160;20.802;2023-08-08T13:59:38;3.87;;;1.30;;
59314;SDS011;46521;50.160;20.802;2023-08-08T14:09:40;4.20;;;1.50;;
59314;SDS011;46521;50.160;20.802;2023-08-08T14:19:41;2.73;;;1.30;;
59314;SDS011;46521;50.160;20.802;2023-08-08T14:29:43;2.95;;;1.20;;
59314;SDS011;46521;50.160;20.802;2023-08-08T14:39:44;5.48;;;1.78;;
59314;SDS011;46521;50.160;20.802;2023-08-08T14:49:46;5.07;;;1.60;;
59314;SDS011;46521;50.160;20.802;2023-08-08T14:59:48;3.63;;;1.30;;
59314;SDS011;46521;50.160;20.802;2023-08-08T15:09:49;4.40;;;1.57;;
59314;SDS011;46521;50.160;20.802;2023-08-08T15:19:50;4.40;;;1.67;;
59314;SDS011;46521;50.160;20.802;2023-08-08T15:29:52;3.68;;;1.50;;
59314;SDS011;46521;50.160;20.802;2023-08-08T15:39:54;6.68;;;1.98;;
59314;SDS011;46521;50.160;20.802;2023-08-08T15:49:55;5.60;;;1.90;;
59314;SDS011;46521;50.160;20.802;2023-08-08T15:59:57;6.35;;;1.90;;
59314;SDS011;46521;50.160;20.802;2023-08-08T16:09:59;5.87;;;1.70;;
59314;SDS011;46521;50.160;20.802;2023-08-08T16:20:02;6.33;;;1.90;;
59314;SDS011;46521;50.160;20.802;2023-08-08T16:30:04;4.40;;;1.65;;
59314;SDS011;46521;50.160;20.802;2023-08-08T16:40:07;17.35;;;3.33;;
59314;SDS011;46521;50.160;20.802;2023-08-08T16:50:09;10.88;;;2.45;;
59314;SDS011;46521;50.160;20.802;2023-08-08T17:00:10;4.73;;;1.70;;
59314;SDS011;46521;50.160;20.802;2023-08-08T17:10:12;44.40;;;7.15;;
59314;SDS011;46521;50.160;20.802;2023-08-08T17:20:14;5.33;;;2.10;;
59314;SDS011;46521;50.160;20.802;2023-08-08T17:30:15;15.90;;;3.80;;
59314;SDS011;46521;50.160;20.802;2023-08-08T17:40:17;17.45;;;4.10;;
59314;SDS011;46521;50.160;20.802;2023-08-08T17:50:18;20.25;;;4.58;;
59314;SDS011;46521;50.160;20.802;2023-08-08T18:00:20;7.83;;;2.53;;
59314;SDS011;46521;50.160;20.802;2023-08-08T18:10:22;7.88;;;2.98;;
59314;SDS011;46521;50.160;20.802;2023-08-08T18:20:24;5.60;;;2.03;;
59314;SDS011;46521;50.160;20.802;2023-08-08T18:30:25;7.75;;;2.20;;
59314;SDS011;46521;50.160;20.802;2023-08-08T18:40:27;5.50;;;2.50;;
59314;SDS011;46521;50.160;20.802;2023-08-08T18:50:28;7.95;;;3.20;;
59314;SDS011;46521;50.160;20.802;2023-08-08T19:00:30;8.85;;;3.15;;
59314;SDS011;46521;50.160;20.802;2023-08-08T19:10:31;7.73;;;2.90;;
59314;SDS011;46521;50.160;20.802;2023-08-08T19:20:33;10.10;;;3.60;;
59314;SDS011;46521;50.160;20.802;2023-08-08T19:30:34;7.30;;;3.50;;
59314;SDS011;46521;50.160;20.802;2023-08-08T19:40:36;7.37;;;3.17;;
59314;SDS011;46521;50.160;20.802;2023-08-08T19:50:37;7.53;;;2.80;;
59314;SDS011;46521;50.160;20.802;2023-08-08T20:00:41;6.93;;;3.07;;
59314;SDS011;46521;50.160;20.802;2023-08-08T20:10:43;6.50;;;2.77;;
59314;SDS011;46521;50.160;20.802;2023-08-08T20:20:44;8.08;;;3.10;;
59314;SDS011;46521;50.160;20.802;2023-08-08T20:30:45;7.90;;;3.07;;
59314;SDS011;46521;50.160;20.802;2023-08-08T20:40:47;7.45;;;3.28;;
59314;SDS011;46521;50.160;20.802;2023-08-08T20:50:51;7.40;;;3.50;;
59314;SDS011;46521;50.160;20.802;2023-08-08T21:00:53;7.57;;;2.83;;
59314;SDS011;46521;50.160;20.802;2023-08-08T21:10:54;7.77;;;3.17;;
59314;SDS011;46521;50.160;20.802;2023-08-08T21:20:55;7.60;;;3.23;;
59314;SDS011;46521;50.160;20.802;2023-08-08T21:30:57;7.60;;;3.30;;
59314;SDS011;46521;50.160;20.802;2023-08-08T21:40:58;7.85;;;3.33;;
59314;SDS011;46521;50.160;20.802;2023-08-08T21:51:00;7.05;;;3.15;;
59314;SDS011;46521;50.160;20.802;2023-08-08T22:01:01;7.53;;;3.30;;
59314;SDS011;46521;50.160;20.802;2023-08-08T22:11:03;7.20;;;3.00;;
59314;SDS011;46521;50.160;20.802;2023-08-08T22:21:04;8.67;;;2.97;;
59314;SDS011;46521;50.160;20.802;2023-08-08T22:31:06;7.20;;;3.00;;
59314;SDS011;46521;50.160;20.802;2023-08-08T22:41:08;6.47;;;3.07;;
59314;SDS011;46521;50.160;20.802;2023-08-08T22:51:09;7.80;;;3.68;;
59314;SDS011;46521;50.160;20.802;2023-08-08T23:01:11;6.50;;;3.15;;
59314;SDS011;46521;50.160;20.802;2023-08-08T23:11:13;6.40;;;2.98;;
59314;SDS011;46521;50.160;20.802;2023-08-08T23:21:14;6.33;;;2.97;;
59314;SDS011;46521;50.160;20.802;2023-08-08T23:31:16;6.30;;;2.98;;
59314;SDS011;46521;50.160;20.802;2023-08-08T23:41:20;6.20;;;2.40;;
59314;SDS011;46521;50.160;20.802;2023-08-08T23:51:22;6.20;;;2.53;;
